createdAt,value
2023-02-16T00:00:19.523Z,101630.44
2023-02-16T00:03:22.635Z,101632.88
2023-02-16T00:06:26.367Z,101628.41
2023-02-16T00:09:28.888Z,101625.31
2023-02-16T00:12:49.591Z,101625.53
2023-02-16T00:15:52.247Z,101629.63
2023-02-16T00:18:54.511Z,101629.00
2023-02-16T00:21:59.077Z,101625.16
2023-02-16T00:25:01.312Z,101619.84
2023-02-16T00:28:08.000Z,101627.16
2023-02-16T00:31:22.266Z,101619.41
2023-02-16T00:34:32.938Z,101625.16
2023-02-16T00:37:35.143Z,101622.28
2023-02-16T00:40:38.016Z,101608.19
2023-02-16T00:43:41.292Z,101609.41
2023-02-16T00:46:45.049Z,101607.97
2023-02-16T00:49:53.245Z,101606.13
2023-02-16T00:52:58.342Z,101610.41
2023-02-16T00:56:00.880Z,101605.91
2023-02-16T00:59:06.174Z,101600.41
2023-02-16T01:02:08.457Z,101599.37
2023-02-16T01:05:11.345Z,101593.44
2023-02-16T01:08:35.026Z,101591.81
2023-02-16T01:11:39.289Z,101585.69
2023-02-16T01:14:41.562Z,101590.19
2023-02-16T01:17:44.381Z,101592.03
2023-02-16T01:20:47.645Z,101593.28
2023-02-16T01:23:50.273Z,101586.94
2023-02-16T01:26:54.458Z,101583.84
2023-02-16T01:29:56.970Z,101587.91
2023-02-16T01:32:59.211Z,101579.37
2023-02-16T01:36:01.686Z,101579.56
2023-02-16T01:39:04.916Z,101575.28
2023-02-16T01:42:30.749Z,101577.50
2023-02-16T01:45:37.917Z,101576.09
2023-02-16T01:48:41.157Z,101571.97
2023-02-16T01:52:11.957Z,101564.66
2023-02-16T01:55:24.745Z,101565.03
2023-02-16T01:58:34.548Z,101565.69
2023-02-16T02:01:36.966Z,101569.97
2023-02-16T02:05:15.824Z,101557.28
2023-02-16T02:08:33.363Z,101561.78
2023-02-16T02:11:42.468Z,101555.22
2023-02-16T02:14:45.018Z,101538.69
2023-02-16T02:17:48.571Z,101537.28
2023-02-16T02:21:41.145Z,101541.75
2023-02-16T02:25:15.741Z,101533.59
2023-02-16T02:28:32.381Z,101534.59
2023-02-16T02:31:50.435Z,101526.44
2023-02-16T02:34:53.024Z,101538.87
2023-02-16T02:38:26.440Z,101535.41
2023-02-16T02:42:06.193Z,101533.94
2023-02-16T02:45:18.608Z,101530.09
2023-02-16T02:48:22.458Z,101535.22
2023-02-16T02:51:30.888Z,101536.88
2023-02-16T02:54:59.049Z,101534.22
2023-02-16T02:58:20.769Z,101526.25
2023-02-16T03:01:25.020Z,101529.31
2023-02-16T03:04:31.122Z,101525.63
2023-02-16T03:07:48.736Z,101523.78
2023-02-16T03:11:19.285Z,101527.63
2023-02-16T03:14:48.039Z,101531.31
2023-02-16T03:18:13.338Z,101535.22
2023-02-16T03:21:35.180Z,101529.25
2023-02-16T03:24:56.307Z,101525.19
2023-02-16T03:28:21.336Z,101519.88
2023-02-16T03:31:30.205Z,101518.22
2023-02-16T03:34:35.852Z,101519.66
2023-02-16T03:37:39.418Z,101515.97
2023-02-16T03:40:45.008Z,101511.87
2023-02-16T03:43:47.155Z,101515.91
2023-02-16T03:46:50.408Z,101517.97
2023-02-16T03:49:52.594Z,101515.31
2023-02-16T03:53:06.730Z,101514.75
2023-02-16T03:56:09.068Z,101509.44
2023-02-16T03:59:11.518Z,101514.75
2023-02-16T04:02:13.812Z,101507.41
2023-02-16T04:05:16.323Z,101515.37
2023-02-16T04:08:18.573Z,101510.28
2023-02-16T04:11:39.868Z,101513.53
2023-02-16T04:14:43.692Z,101509.06
2023-02-16T04:17:46.801Z,101509.88
2023-02-16T04:20:49.045Z,101507.84
2023-02-16T04:23:51.510Z,101514.56
2023-02-16T04:26:53.641Z,101498.03
2023-02-16T04:29:56.045Z,101495.16
2023-02-16T04:32:59.577Z,101502.09
2023-02-16T04:36:02.165Z,101511.06
2023-02-16T04:39:04.763Z,101513.09
2023-02-16T04:42:07.309Z,101517.16
2023-02-16T04:45:10.651Z,101520.41
2023-02-16T04:48:13.050Z,101519.19
2023-02-16T04:51:15.282Z,101518.75
2023-02-16T04:54:17.712Z,101514.03
2023-02-16T04:57:21.397Z,101515.06
2023-02-16T05:00:24.079Z,101518.09
2023-02-16T05:03:26.251Z,101526.66
2023-02-16T05:06:28.710Z,101519.09
2023-02-16T05:09:30.891Z,101518.47
2023-02-16T05:12:51.864Z,101503.78
2023-02-16T05:15:54.096Z,101505.19
2023-02-16T05:18:58.906Z,101506.84
2023-02-16T05:22:01.168Z,101513.62
2023-02-16T05:25:03.864Z,101511.53
2023-02-16T05:28:06.184Z,101507.09
2023-02-16T05:31:08.716Z,101508.91
2023-02-16T05:34:11.058Z,101503.22
2023-02-16T05:37:15.218Z,101503.00
2023-02-16T05:40:17.538Z,101499.09
2023-02-16T05:43:19.988Z,101500.31
2023-02-16T05:46:24.588Z,101501.50
2023-02-16T05:49:27.104Z,101508.03
2023-02-16T05:52:29.270Z,101504.34
2023-02-16T05:55:31.703Z,101507.22
2023-02-16T05:58:33.925Z,101505.78
2023-02-16T06:01:36.365Z,101504.31
2023-02-16T06:04:39.383Z,101503.53
2023-02-16T06:07:41.514Z,101498.66
2023-02-16T06:10:43.989Z,101494.75
2023-02-16T06:13:46.166Z,101500.28
2023-02-16T06:16:51.490Z,101498.63
2023-02-16T06:19:54.253Z,101506.50
2023-02-16T06:22:56.819Z,101497.38
2023-02-16T06:25:58.987Z,101497.78
2023-02-16T06:29:01.557Z,101504.87
2023-02-16T06:32:04.235Z,101508.84
2023-02-16T06:35:07.015Z,101504.37
2023-02-16T06:38:09.118Z,101508.50
2023-02-16T06:41:11.708Z,101506.84
2023-02-16T06:44:15.803Z,101508.09
2023-02-16T06:47:18.255Z,101505.91
2023-02-16T06:50:20.543Z,101503.47
2023-02-16T06:53:23.060Z,101499.19
2023-02-16T06:56:25.432Z,101495.72
2023-02-16T06:59:27.876Z,101493.72
2023-02-16T07:02:30.019Z,101494.34
2023-02-16T07:05:32.494Z,101497.00
2023-02-16T07:08:35.895Z,101493.31
2023-02-16T07:11:38.740Z,101488.03
2023-02-16T07:14:43.071Z,101484.78
2023-02-16T07:17:46.352Z,101491.53
2023-02-16T07:20:49.075Z,101487.44
2023-02-16T07:23:51.607Z,101487.47
2023-02-16T07:26:55.047Z,101485.41
2023-02-16T07:29:57.567Z,101496.25
2023-02-16T07:32:59.874Z,101499.69
2023-02-16T07:36:03.318Z,101499.31
2023-02-16T07:39:05.658Z,101494.19
2023-02-16T07:42:08.079Z,101485.38
2023-02-16T07:45:10.236Z,101481.53
2023-02-16T07:48:13.912Z,101480.69
2023-02-16T07:51:30.765Z,101490.66
2023-02-16T07:54:33.532Z,101483.31
2023-02-16T07:57:38.759Z,101487.34
2023-02-16T08:00:41.228Z,101484.66
2023-02-16T08:03:43.775Z,101485.88
2023-02-16T08:06:48.588Z,101487.06
2023-02-16T08:09:51.196Z,101495.41
2023-02-16T08:12:53.355Z,101493.34
2023-02-16T08:15:55.779Z,101494.13
2023-02-16T08:18:59.961Z,101495.91
2023-02-16T08:22:02.809Z,101503.03
2023-02-16T08:25:06.887Z,101499.66
2023-02-16T08:28:09.680Z,101489.38
2023-02-16T08:31:20.086Z,101491.34
2023-02-16T08:34:24.079Z,101495.59
2023-02-16T08:37:26.288Z,101499.38
2023-02-16T08:40:30.159Z,101503.19
2023-02-16T08:43:32.508Z,101502.91
2023-02-16T08:46:37.187Z,101495.94
2023-02-16T08:49:39.602Z,101498.25
2023-02-16T08:52:42.077Z,101495.09
2023-02-16T08:55:51.593Z,101495.75
2023-02-16T08:58:54.057Z,101495.22
2023-02-16T09:01:58.154Z,101492.72
2023-02-16T09:05:01.117Z,101493.75
2023-02-16T09:08:03.464Z,101503.47
2023-02-16T09:11:08.926Z,101501.31
2023-02-16T09:14:11.133Z,101492.59
2023-02-16T09:17:14.301Z,101490.81
2023-02-16T09:20:17.223Z,101487.94
2023-02-16T09:23:20.537Z,101488.22
2023-02-16T09:26:24.680Z,101485.06
2023-02-16T09:29:27.178Z,101486.34
2023-02-16T09:32:30.615Z,101487.44
2023-02-16T09:35:33.085Z,101486.25
2023-02-16T09:38:36.686Z,101484.69
2023-02-16T09:42:05.559Z,101485.09
2023-02-16T09:45:20.418Z,101484.84
2023-02-16T09:48:37.379Z,101493.59
2023-02-16T09:51:44.612Z,101490.47
2023-02-16T09:54:51.857Z,101481.53
2023-02-16T09:58:21.553Z,101483.63
2023-02-16T10:01:47.810Z,101474.37
2023-02-16T10:05:04.504Z,101468.03
2023-02-16T10:08:13.307Z,101479.16
2023-02-16T10:11:48.825Z,101476.91
2023-02-16T10:15:01.370Z,101478.00
2023-02-16T10:18:16.405Z,101469.72
2023-02-16T10:21:26.295Z,101472.31
2023-02-16T10:24:34.568Z,101464.44
2023-02-16T10:27:45.701Z,101464.53
2023-02-16T10:31:01.472Z,101465.19
2023-02-16T10:34:06.805Z,101456.97
2023-02-16T10:37:47.617Z,101451.13
2023-02-16T10:41:01.434Z,101451.69
2023-02-16T10:44:22.723Z,101443.41
2023-02-16T10:47:36.828Z,101443.50
2023-02-16T10:50:42.121Z,101445.03
2023-02-16T10:53:50.948Z,101436.78
2023-02-16T10:56:59.502Z,101431.69
2023-02-16T11:00:06.736Z,101426.34
2023-02-16T11:03:12.588Z,101426.34
2023-02-16T11:06:17.955Z,101424.00
2023-02-16T11:09:27.859Z,101418.59
2023-02-16T11:12:33.443Z,101417.72
2023-02-16T11:15:39.235Z,101411.91
2023-02-16T11:18:45.385Z,101416.25
2023-02-16T11:21:55.214Z,101417.03
2023-02-16T11:25:22.561Z,101410.31
2023-02-16T11:28:48.581Z,101399.84
2023-02-16T11:31:50.857Z,101392.56
2023-02-16T11:34:53.818Z,101385.34
2023-02-16T11:37:56.073Z,101377.84
2023-02-16T11:41:00.774Z,101382.66
2023-02-16T11:44:04.103Z,101375.87
2023-02-16T11:47:21.287Z,101373.75
2023-02-16T11:50:38.434Z,101380.22
2023-02-16T11:53:43.387Z,101371.09
2023-02-16T11:57:02.394Z,101367.34
2023-02-16T12:00:19.254Z,101361.16
2023-02-16T12:03:31.456Z,101351.19
2023-02-16T12:06:49.880Z,101346.81
2023-02-16T12:10:31.283Z,101340.03
2023-02-16T12:13:58.340Z,101331.44
2023-02-16T12:17:07.862Z,101332.81
2023-02-16T12:20:28.249Z,101322.88
2023-02-16T12:23:39.881Z,101321.22
2023-02-16T12:26:52.024Z,101311.00
2023-02-16T12:30:03.196Z,101302.34
2023-02-16T12:33:13.480Z,101306.34
2023-02-16T12:36:25.489Z,101309.56
2023-02-16T12:39:55.352Z,101302.00
2023-02-16T12:43:22.505Z,101296.06
2023-02-16T12:46:30.513Z,101290.69
2023-02-16T12:49:55.152Z,101284.19
2023-02-16T12:53:03.497Z,101286.84
2023-02-16T12:56:14.440Z,101274.97
2023-02-16T12:59:24.940Z,101270.41
2023-02-16T13:02:43.216Z,101262.81
2023-02-16T13:05:51.234Z,101252.59
2023-02-16T13:09:16.216Z,101251.88
2023-02-16T13:12:31.507Z,101246.75
2023-02-16T13:15:38.272Z,101248.97
2023-02-16T13:18:44.288Z,101238.19
2023-02-16T13:21:52.806Z,101247.28
2023-02-16T13:25:04.110Z,101241.50
2023-02-16T13:28:23.081Z,101235.09
2023-02-16T13:31:49.261Z,101230.56
2023-02-16T13:35:30.138Z,101231.88
2023-02-16T13:38:43.634Z,101220.44
2023-02-16T13:42:13.232Z,101216.75
2023-02-16T13:45:22.933Z,101222.19
2023-02-16T13:48:39.339Z,101220.47
2023-02-16T13:51:47.170Z,101223.91
2023-02-16T13:54:50.050Z,101223.25
2023-02-16T13:58:01.695Z,101222.06
2023-02-16T14:01:39.105Z,101222.53
2023-02-16T14:04:50.393Z,101225.44
2023-02-16T14:08:11.845Z,101219.56
2023-02-16T14:11:14.274Z,101216.63
2023-02-16T14:14:28.626Z,101207.09
2023-02-16T14:17:37.400Z,101217.38
2023-02-16T14:20:39.624Z,101207.41
2023-02-16T14:23:42.825Z,101213.78
2023-02-16T14:26:59.445Z,101211.88
2023-02-16T14:30:04.398Z,101214.31
2023-02-16T14:33:12.445Z,101208.12
2023-02-16T14:36:16.636Z,101215.19
2023-02-16T14:39:24.756Z,101209.47
2023-02-16T14:42:34.925Z,101202.47
2023-02-16T14:45:59.096Z,101213.41
2023-02-16T14:49:04.994Z,101204.62
2023-02-16T14:52:37.145Z,101205.53
2023-02-16T14:56:06.660Z,101205.69
2023-02-16T14:59:32.789Z,101200.34
2023-02-16T15:02:40.812Z,101203.91
2023-02-16T15:05:49.458Z,101205.56
2023-02-16T15:08:59.284Z,101204.09
2023-02-16T15:12:23.048Z,101206.59
2023-02-16T15:15:44.032Z,101206.63
2023-02-16T15:18:53.468Z,101208.53
2023-02-16T15:22:19.277Z,101206.75
2023-02-16T15:25:34.717Z,101204.06
2023-02-16T15:28:39.631Z,101211.34
2023-02-16T15:31:41.997Z,101193.66
2023-02-16T15:34:45.243Z,101196.63
2023-02-16T15:37:47.799Z,101192.34
2023-02-16T15:40:55.134Z,101200.72
2023-02-16T15:43:58.711Z,101199.37
2023-02-16T15:47:37.375Z,101209.38
2023-02-16T15:50:39.728Z,101197.56
2023-02-16T15:53:45.112Z,101207.53
2023-02-16T15:56:48.986Z,101197.03
2023-02-16T15:59:57.060Z,101198.38
2023-02-16T16:03:01.087Z,101193.56
2023-02-16T16:06:08.508Z,101201.91
2023-02-16T16:09:27.769Z,101201.66
2023-02-16T16:12:30.838Z,101201.38
2023-02-16T16:15:45.254Z,101194.38
2023-02-16T16:18:50.995Z,101200.03
2023-02-16T16:21:54.673Z,101196.03
2023-02-16T16:24:57.243Z,101196.28
2023-02-16T16:27:59.963Z,101191.41
2023-02-16T16:31:26.012Z,101203.28
2023-02-16T16:34:34.230Z,101196.53
2023-02-16T16:37:37.284Z,101195.44
2023-02-16T16:40:40.063Z,101203.50
2023-02-16T16:43:53.816Z,101207.25
2023-02-16T16:46:56.254Z,101214.19
2023-02-16T16:50:05.978Z,101212.31
2023-02-16T16:53:43.121Z,101219.06
2023-02-16T16:56:45.550Z,101219.00
2023-02-16T16:59:47.724Z,101219.00
2023-02-16T17:02:50.183Z,101219.53
2023-02-16T17:05:52.488Z,101214.69
2023-02-16T17:08:55.250Z,101207.19
2023-02-16T17:11:58.439Z,101206.34
2023-02-16T17:15:01.707Z,101209.03
2023-02-16T17:18:04.842Z,101209.81
2023-02-16T17:21:07.580Z,101215.75
2023-02-16T17:24:10.263Z,101210.09
2023-02-16T17:27:13.884Z,101210.34
2023-02-16T17:30:16.226Z,101211.41
2023-02-16T17:33:18.755Z,101208.25
2023-02-16T17:36:22.583Z,101204.72
2023-02-16T17:39:25.276Z,101202.50
2023-02-16T17:42:28.323Z,101205.22
2023-02-16T17:45:30.969Z,101198.44
2023-02-16T17:48:33.309Z,101193.34
2023-02-16T17:51:36.503Z,101196.03
2023-02-16T17:54:39.132Z,101196.88
2023-02-16T17:57:41.680Z,101200.00
2023-02-16T18:00:45.111Z,101200.22
2023-02-16T18:03:47.689Z,101194.28
2023-02-16T18:06:50.764Z,101199.94
2023-02-16T18:09:54.155Z,101200.78
2023-02-16T18:12:56.311Z,101199.69
2023-02-16T18:16:01.786Z,101205.28
2023-02-16T18:19:04.508Z,101201.44
2023-02-16T18:22:06.925Z,101207.56
2023-02-16T18:25:09.217Z,101205.66
2023-02-16T18:28:20.183Z,101205.28
2023-02-16T18:31:22.472Z,101206.03
2023-02-16T18:34:26.292Z,101215.06
2023-02-16T18:37:28.838Z,101213.88
2023-02-16T18:40:31.266Z,101211.44
2023-02-16T18:43:35.760Z,101216.22
2023-02-16T18:46:38.469Z,101221.19
2023-02-16T18:49:41.842Z,101223.75
2023-02-16T18:52:44.934Z,101218.38
2023-02-16T18:55:47.153Z,101217.22
2023-02-16T18:58:49.582Z,101218.75
2023-02-16T19:01:56.273Z,101224.16
2023-02-16T19:04:58.685Z,101216.25
2023-02-16T19:08:00.911Z,101212.06
2023-02-16T19:11:03.444Z,101228.16
2023-02-16T19:14:05.625Z,101223.72
2023-02-16T19:17:08.343Z,101229.09
2023-02-16T19:20:14.485Z,101222.34
2023-02-16T19:23:17.575Z,101222.16
2023-02-16T19:26:20.031Z,101221.84
2023-02-16T19:29:22.511Z,101216.16
2023-02-16T19:32:24.738Z,101221.09
2023-02-16T19:35:27.213Z,101218.59
2023-02-16T19:38:29.687Z,101212.66
2023-02-16T19:41:35.711Z,101218.28
2023-02-16T19:44:39.308Z,101219.50
2023-02-16T19:47:41.821Z,101219.97
2023-02-16T19:50:44.438Z,101221.66
2023-02-16T19:53:47.499Z,101228.44
2023-02-16T19:56:49.652Z,101234.25
2023-02-16T19:59:52.070Z,101223.00
2023-02-16T20:02:54.301Z,101226.56
2023-02-16T20:05:56.711Z,101224.13
2023-02-16T20:09:00.752Z,101224.81
2023-02-16T20:12:04.625Z,101228.34
2023-02-16T20:15:07.065Z,101228.06
2023-02-16T20:18:10.120Z,101229.44
2023-02-16T20:21:20.905Z,101226.13
2023-02-16T20:24:23.330Z,101230.78
2023-02-16T20:27:27.737Z,101231.28
2023-02-16T20:30:30.744Z,101231.19
2023-02-16T20:33:32.949Z,101230.06
2023-02-16T20:36:36.462Z,101234.28
2023-02-16T20:39:38.638Z,101233.37
2023-02-16T20:42:41.091Z,101228.66
2023-02-16T20:45:43.313Z,101228.88
2023-02-16T20:48:46.225Z,101228.06
2023-02-16T20:51:48.466Z,101229.19
2023-02-16T20:54:50.902Z,101220.53
2023-02-16T20:57:53.115Z,101227.28
2023-02-16T21:00:55.973Z,101227.44
2023-02-16T21:03:59.915Z,101223.50
2023-02-16T21:07:02.384Z,101222.69
2023-02-16T21:10:07.590Z,101221.41
2023-02-16T21:13:10.100Z,101213.28
2023-02-16T21:16:14.113Z,101210.88
2023-02-16T21:19:22.911Z,101214.00
2023-02-16T21:22:25.634Z,101203.56
2023-02-16T21:25:28.087Z,101205.16
2023-02-16T21:28:30.421Z,101212.63
2023-02-16T21:31:32.860Z,101218.53
2023-02-16T21:34:35.406Z,101210.91
2023-02-16T21:37:38.672Z,101213.19
2023-02-16T21:41:12.934Z,101207.50
2023-02-16T21:44:18.241Z,101214.69
2023-02-16T21:47:39.173Z,101204.69
2023-02-16T21:50:42.112Z,101204.94
2023-02-16T21:53:44.344Z,101206.34
2023-02-16T21:56:50.322Z,101207.59
2023-02-16T21:59:52.713Z,101214.69
2023-02-16T22:02:55.142Z,101213.34
2023-02-16T22:06:02.375Z,101212.28
2023-02-16T22:09:10.400Z,101208.50
2023-02-16T22:12:12.864Z,101202.91
2023-02-16T22:15:15.072Z,101202.22
2023-02-16T22:18:17.444Z,101205.19
2023-02-16T22:21:19.658Z,101202.87
2023-02-16T22:24:22.077Z,101196.88
2023-02-16T22:27:24.237Z,101201.03
2023-02-16T22:30:26.743Z,101200.94
2023-02-16T22:33:28.915Z,101201.41
2023-02-16T22:36:31.500Z,101189.69
2023-02-16T22:39:33.669Z,101183.41
2023-02-16T22:42:38.648Z,101182.91
2023-02-16T22:45:40.822Z,101180.97
2023-02-16T22:48:44.597Z,101175.41
2023-02-16T22:51:46.759Z,101171.78
2023-02-16T22:54:52.284Z,101173.50
2023-02-16T22:57:54.447Z,101164.88
2023-02-16T23:00:56.886Z,101163.88
2023-02-16T23:04:00.784Z,101171.38
2023-02-16T23:07:03.266Z,101165.34
2023-02-16T23:10:06.060Z,101172.56
2023-02-16T23:13:09.492Z,101166.63
2023-02-16T23:16:14.825Z,101164.41
2023-02-16T23:19:21.456Z,101168.53
2023-02-16T23:22:23.587Z,101173.53
2023-02-16T23:25:35.462Z,101163.25
2023-02-16T23:28:39.296Z,101162.44
2023-02-16T23:31:43.897Z,101157.25
2023-02-16T23:34:46.035Z,101163.41
2023-02-16T23:37:48.541Z,101158.56
2023-02-16T23:41:16.863Z,101158.41
2023-02-16T23:44:19.314Z,101165.75
2023-02-16T23:47:22.444Z,101166.72
2023-02-16T23:50:25.041Z,101172.81
2023-02-16T23:53:28.380Z,101174.56
2023-02-16T23:56:30.968Z,101179.94
2023-02-16T23:59:33.794Z,101175.06
